Time;durP1;ratioP1;P1;durP2;ratioP2;P2;SDS_P1;SDS_P2;PMS_P1;PMS_P2;Temp;Humidity;BMP_temperature;BMP_pressure;BME280_temperature;BME280_humidity;BME280_pressure;Samples;Min_cycle;Max_cycle;Signal;HPM_P1;HPM_P2
2023/04/11 00:02:07;;;;;;;10.63;7.78;;;;;;;;;;5072454;28;20046;-66
2023/04/11 00:04:33;;;;;;;10.48;7.43;;;;;;;;;;5070526;28;20435;-66
2023/04/11 00:06:59;;;;;;;11.25;7.57;;;;;;;;;;5072022;28;20499;-64
2023/04/11 00:09:25;;;;;;;9.77;7.53;;;;;;;;;;5072058;28;20126;-65
2023/04/11 00:11:51;;;;;;;10.98;7.93;;;;;;;;;;5071901;28;20107;-66
2023/04/11 00:14:17;;;;;;;9.55;7.22;;;;;;;;;;5071950;28;20029;-65
2023/04/11 00:16:43;;;;;;;10.07;7.70;;;;;;;;;;5071932;28;20017;-65
2023/04/11 00:19:08;;;;;;;10.18;7.78;;;;;;;;;;5072173;28;20036;-66
2023/04/11 00:21:38;;;;;;;9.68;7.25;;;;;;;;;;5071955;28;20032;-65
2023/04/11 00:24:06;;;;;;;8.30;6.90;;;;;;;;;;5072121;28;20035;-65
2023/04/11 00:26:32;;;;;;;11.20;7.97;;;;;;;;;;5071877;28;20032;-65
2023/04/11 00:28:57;;;;;;;12.07;7.22;;;;;;;;;;5072142;28;20024;-65
2023/04/11 00:31:23;;;;;;;11.13;7.80;;;;;;;;;;5071699;28;20527;-65
2023/04/11 00:33:49;;;;;;;10.60;7.28;;;;;;;;;;5071764;28;20066;-64
2023/04/11 00:36:15;;;;;;;10.00;7.30;;;;;;;;;;5072045;28;20052;-65
2023/04/11 00:38:41;;;;;;;10.45;7.35;;;;;;;;;;5072025;28;20051;-66
2023/04/11 00:41:07;;;;;;;9.20;7.38;;;;;;;;;;5071749;28;20031;-66
2023/04/11 00:43:33;;;;;;;9.80;7.60;;;;;;;;;;5071684;28;20033;-65
2023/04/11 00:45:59;;;;;;;8.80;7.10;;;;;;;;;;5071721;28;20051;-65
2023/04/11 00:48:27;;;;;;;8.82;7.30;;;;;;;;;;5071666;28;20032;-66
2023/04/11 00:50:53;;;;;;;9.55;7.50;;;;;;;;;;5072038;28;20024;-64
2023/04/11 00:53:20;;;;;;;11.23;7.55;;;;;;;;;;5074543;28;20139;-65
2023/04/11 00:55:45;;;;;;;10.27;7.47;;;;;;;;;;5075221;28;20099;-64
2023/04/11 00:58:11;;;;;;;10.55;6.93;;;;;;;;;;5075182;28;20066;-66
2023/04/11 01:00:37;;;;;;;10.15;7.40;;;;;;;;;;5075123;28;20082;-66
2023/04/11 01:03:03;;;;;;;11.63;7.55;;;;;;;;;;5075361;28;20123;-66
2023/04/11 01:05:30;;;;;;;9.20;6.75;;;;;;;;;;5075075;28;20480;-64
2023/04/11 01:07:56;;;;;;;9.15;6.85;;;;;;;;;;5075018;28;20032;-66
2023/04/11 01:10:22;;;;;;;9.25;6.95;;;;;;;;;;5074820;28;20025;-65
2023/04/11 01:12:49;;;;;;;11.25;7.97;;;;;;;;;;5075128;28;20079;-66
2023/04/11 01:15:15;;;;;;;8.88;7.22;;;;;;;;;;5074606;28;20031;-66
2023/04/11 01:17:41;;;;;;;8.43;6.88;;;;;;;;;;5075092;28;20029;-65
2023/04/11 01:20:08;;;;;;;9.73;7.05;;;;;;;;;;5075069;28;20375;-65
2023/04/11 01:22:36;;;;;;;9.50;6.78;;;;;;;;;;5074953;28;20498;-66
2023/04/11 01:25:03;;;;;;;9.50;7.28;;;;;;;;;;5074657;28;20035;-66
2023/04/11 01:27:29;;;;;;;10.23;7.53;;;;;;;;;;5074635;28;20054;-66
2023/04/11 01:29:55;;;;;;;9.43;7.00;;;;;;;;;;5074845;28;20377;-66
2023/04/11 01:32:20;;;;;;;11.30;7.65;;;;;;;;;;5074745;28;20039;-64
2023/04/11 01:34:47;;;;;;;9.48;7.40;;;;;;;;;;5074491;28;20540;-66
2023/04/11 01:37:12;;;;;;;9.88;7.07;;;;;;;;;;5074524;28;20020;-65
2023/04/11 01:39:38;;;;;;;8.68;6.95;;;;;;;;;;5074366;28;20028;-65
2023/04/11 01:42:05;;;;;;;9.40;7.00;;;;;;;;;;5074324;28;20090;-65
2023/04/11 01:44:32;;;;;;;8.27;6.90;;;;;;;;;;5074205;28;20031;-65
2023/04/11 01:46:58;;;;;;;11.00;7.53;;;;;;;;;;5074512;28;20036;-66
2023/04/11 01:49:25;;;;;;;9.18;6.90;;;;;;;;;;5074430;28;20040;-65
2023/04/11 01:51:50;;;;;;;9.98;7.35;;;;;;;;;;5074348;28;20025;-65
2023/04/11 01:54:16;;;;;;;9.45;6.90;;;;;;;;;;5074017;28;20193;-65
2023/04/11 01:56:42;;;;;;;9.38;6.95;;;;;;;;;;5074015;28;20089;-66
2023/04/11 01:59:07;;;;;;;9.05;7.07;;;;;;;;;;5074297;28;20025;-66
2023/04/11 02:01:33;;;;;;;11.60;7.53;;;;;;;;;;5074186;28;20063;-66
2023/04/11 02:03:59;;;;;;;9.32;7.10;;;;;;;;;;5072796;28;20029;-65
2023/04/11 02:06:26;;;;;;;8.98;7.20;;;;;;;;;;5073833;28;20024;-65
2023/04/11 02:08:52;;;;;;;10.65;7.70;;;;;;;;;;5073756;28;20365;-66
2023/04/11 02:11:17;;;;;;;9.35;7.03;;;;;;;;;;5073711;28;20043;-65
2023/04/11 02:13:43;;;;;;;10.32;7.35;;;;;;;;;;5073681;28;20115;-66
2023/04/11 02:16:13;;;;;;;9.48;6.63;;;;;;;;;;5073649;28;20020;-65
2023/04/11 02:18:40;;;;;;;9.13;7.07;;;;;;;;;;5073581;28;20021;-66
2023/04/11 02:21:06;;;;;;;8.75;6.47;;;;;;;;;;5072262;28;20028;-66
2023/04/11 02:23:32;;;;;;;8.68;6.85;;;;;;;;;;5073536;28;20029;-65
2023/04/11 02:25:57;;;;;;;8.55;6.60;;;;;;;;;;5073509;28;20070;-66
2023/04/11 02:28:23;;;;;;;11.00;7.05;;;;;;;;;;5073430;28;20025;-66
2023/04/11 02:30:49;;;;;;;8.63;6.68;;;;;;;;;;5073385;28;20415;-66
2023/04/11 02:33:15;;;;;;;9.48;6.65;;;;;;;;;;5073281;28;20033;-66
2023/04/11 02:35:41;;;;;;;9.55;7.30;;;;;;;;;;5073328;28;20073;-66
2023/04/11 02:38:07;;;;;;;10.52;6.63;;;;;;;;;;5073258;28;20032;-65
2023/04/11 02:40:32;;;;;;;7.68;6.57;;;;;;;;;;5071982;28;20024;-66
2023/04/11 02:42:59;;;;;;;9.00;7.07;;;;;;;;;;5073154;28;20024;-65
2023/04/11 02:45:25;;;;;;;9.48;7.00;;;;;;;;;;5073171;28;20460;-66
2023/04/11 02:47:51;;;;;;;9.27;7.30;;;;;;;;;;5073023;28;20025;-65
2023/04/11 02:50:16;;;;;;;9.38;7.05;;;;;;;;;;5072150;28;20035;-65
2023/04/11 02:52:44;;;;;;;11.10;7.22;;;;;;;;;;5073157;28;20464;-66
2023/04/11 02:55:10;;;;;;;8.43;6.68;;;;;;;;;;5072818;28;20079;-65
2023/04/11 02:57:35;;;;;;;9.38;7.20;;;;;;;;;;5072894;28;20020;-66
2023/04/11 03:00:05;;;;;;;9.00;6.85;;;;;;;;;;5072875;28;20434;-66
2023/04/11 03:02:31;;;;;;;9.20;7.35;;;;;;;;;;5072795;28;20025;-66
2023/04/11 03:04:57;;;;;;;8.43;6.80;;;;;;;;;;5072869;28;20081;-66
2023/04/11 03:07:23;;;;;;;9.27;6.95;;;;;;;;;;5072767;28;20532;-65
2023/04/11 03:09:49;;;;;;;9.80;7.38;;;;;;;;;;5072758;28;20113;-66
2023/04/11 03:12:15;;;;;;;9.35;7.10;;;;;;;;;;5072607;28;20064;-65
2023/04/11 03:14:40;;;;;;;8.77;6.70;;;;;;;;;;5072255;28;20040;-66
2023/04/11 03:17:06;;;;;;;8.52;6.70;;;;;;;;;;5072618;28;20027;-66
2023/04/11 03:19:31;;;;;;;9.15;6.88;;;;;;;;;;5072579;28;20020;-64
2023/04/11 03:21:57;;;;;;;8.90;6.60;;;;;;;;;;5072569;28;20115;-66
2023/04/11 03:24:22;;;;;;;9.15;6.45;;;;;;;;;;5072544;28;20025;-64
2023/04/11 03:26:48;;;;;;;8.15;6.60;;;;;;;;;;5072419;28;20024;-66
2023/04/11 03:29:13;;;;;;;8.77;6.82;;;;;;;;;;5072460;28;20040;-65
2023/04/11 03:31:39;;;;;;;9.27;6.53;;;;;;;;;;5072315;28;20048;-66
2023/04/11 03:34:06;;;;;;;8.15;6.53;;;;;;;;;;5072275;28;20037;-65
2023/04/11 03:36:31;;;;;;;9.75;6.45;;;;;;;;;;5072362;28;20476;-64
2023/04/11 03:38:57;;;;;;;7.90;6.53;;;;;;;;;;5072299;28;20032;-66
2023/04/11 03:41:23;;;;;;;8.75;6.65;;;;;;;;;;5072242;28;20024;-66
2023/04/11 03:43:48;;;;;;;8.93;7.40;;;;;;;;;;5072324;28;20070;-65
2023/04/11 03:46:14;;;;;;;7.53;6.45;;;;;;;;;;5072494;28;20021;-65
2023/04/11 03:48:40;;;;;;;9.13;7.10;;;;;;;;;;5071078;28;20032;-65
2023/04/11 03:51:06;;;;;;;9.60;6.50;;;;;;;;;;5072245;28;20054;-65
2023/04/11 03:53:32;;;;;;;8.68;6.60;;;;;;;;;;5072035;28;20048;-66
2023/04/11 03:55:57;;;;;;;7.78;6.25;;;;;;;;;;5072642;28;20033;-65
2023/04/11 03:58:23;;;;;;;8.80;6.82;;;;;;;;;;5072154;28;20027;-65
2023/04/11 04:00:49;;;;;;;7.03;6.32;;;;;;;;;;5072145;28;20028;-65
2023/04/11 04:03:14;;;;;;;9.23;6.50;;;;;;;;;;5072394;28;20078;-65
2023/04/11 04:05:40;;;;;;;8.25;6.35;;;;;;;;;;5072100;28;20104;-66
2023/04/11 04:08:06;;;;;;;9.05;7.07;;;;;;;;;;5072257;28;20111;-65
2023/04/11 04:10:31;;;;;;;8.90;6.63;;;;;;;;;;5072053;28;20476;-65
2023/04/11 04:12:57;;;;;;;9.70;7.22;;;;;;;;;;5071873;28;20108;-65
2023/04/11 04:15:23;;;;;;;8.13;6.40;;;;;;;;;;5071945;28;20133;-65
2023/04/11 04:17:50;;;;;;;8.52;6.85;;;;;;;;;;5072223;28;20028;-65
2023/04/11 04:20:16;;;;;;;8.93;6.50;;;;;;;;;;5071838;28;20021;-64
2023/04/11 04:22:41;;;;;;;7.75;6.35;;;;;;;;;;5071929;28;20074;-64
2023/04/11 04:25:11;;;;;;;9.05;6.47;;;;;;;;;;5071928;28;20024;-64
2023/04/11 04:27:42;;;;;;;8.63;6.05;;;;;;;;;;5074145;28;20039;-65
2023/04/11 04:30:10;;;;;;;8.13;6.50;;;;;;;;;;5075724;28;20052;-65
2023/04/11 04:32:35;;;;;;;8.02;6.28;;;;;;;;;;5075377;28;20504;-66
2023/04/11 04:35:01;;;;;;;7.78;6.38;;;;;;;;;;5075510;28;20050;-65
2023/04/11 04:37:27;;;;;;;9.98;6.85;;;;;;;;;;5075851;28;20090;-65
2023/04/11 04:40:06;;;;;;;8.63;6.57;;;;;;;;;;5075376;28;20548;-65
2023/04/11 04:42:33;;;;;;;9.02;6.93;;;;;;;;;;5075678;28;20074;-66
2023/04/11 04:44:59;;;;;;;9.60;6.82;;;;;;;;;;5075388;28;20016;-65
2023/04/11 04:47:32;;;;;;;8.95;6.30;;;;;;;;;;5075290;28;20548;-65
2023/04/11 04:49:58;;;;;;;8.43;6.10;;;;;;;;;;5075219;28;20039;-65
2023/04/11 04:52:26;;;;;;;8.38;6.22;;;;;;;;;;5075062;28;20067;-65
2023/04/11 04:54:56;;;;;;;8.35;6.70;;;;;;;;;;5075004;28;20040;-65
2023/04/11 04:57:26;;;;;;;7.30;6.20;;;;;;;;;;5075041;28;20064;-65
2023/04/11 04:59:52;;;;;;;7.97;6.15;;;;;;;;;;5075321;28;20032;-65
2023/04/11 05:02:20;;;;;;;8.55;6.70;;;;;;;;;;5075025;28;20048;-65
2023/04/11 05:04:47;;;;;;;8.43;6.65;;;;;;;;;;5074886;28;20027;-67
2023/04/11 05:07:13;;;;;;;8.00;6.57;;;;;;;;;;5074799;28;20025;-64
2023/04/11 05:09:39;;;;;;;9.15;6.50;;;;;;;;;;5074782;28;20029;-65
2023/04/11 05:12:05;;;;;;;8.23;6.07;;;;;;;;;;5074887;28;20534;-65
2023/04/11 05:14:30;;;;;;;8.82;6.60;;;;;;;;;;5075019;28;20024;-65
2023/04/11 05:16:56;;;;;;;7.47;6.47;;;;;;;;;;5070531;28;20573;-65
2023/04/11 05:19:22;;;;;;;8.40;6.28;;;;;;;;;;5072003;28;20016;-68
2023/04/11 05:21:47;;;;;;;8.43;6.45;;;;;;;;;;5072092;28;20025;-66
2023/04/11 05:24:13;;;;;;;8.65;6.13;;;;;;;;;;5062931;28;20489;-66
2023/04/11 05:26:38;;;;;;;9.43;6.65;;;;;;;;;;5073298;28;20077;-67
2023/04/11 05:29:05;;;;;;;8.05;6.35;;;;;;;;;;5071542;28;20025;-64
2023/04/11 05:31:31;;;;;;;9.52;6.60;;;;;;;;;;5073114;28;20042;-66
2023/04/11 05:33:57;;;;;;;8.30;6.47;;;;;;;;;;5073188;28;20099;-65
2023/04/11 05:36:23;;;;;;;7.75;6.05;;;;;;;;;;5073949;28;20037;-69
2023/04/11 05:38:49;;;;;;;7.88;6.22;;;;;;;;;;5071856;28;20028;-67
2023/04/11 05:41:15;;;;;;;8.45;6.55;;;;;;;;;;5084840;28;20035;-67
2023/04/11 05:43:41;;;;;;;7.25;6.22;;;;;;;;;;5072567;28;20021;-68
2023/04/11 05:46:08;;;;;;;7.70;6.45;;;;;;;;;;5073573;28;20032;-67
2023/04/11 05:48:34;;;;;;;7.15;5.95;;;;;;;;;;5072628;28;20029;-67
2023/04/11 05:51:00;;;;;;;8.82;6.60;;;;;;;;;;5074216;28;20124;-67
2023/04/11 05:53:29;;;;;;;7.10;6.25;;;;;;;;;;5072733;28;20649;-67
2023/04/11 05:55:55;;;;;;;6.70;5.85;;;;;;;;;;5072212;28;20036;-68
2023/04/11 05:58:20;;;;;;;8.75;6.60;;;;;;;;;;5074160;28;20032;-67
2023/04/11 06:00:46;;;;;;;7.05;6.07;;;;;;;;;;5073561;28;20515;-68
2023/04/11 06:03:11;;;;;;;8.68;6.95;;;;;;;;;;5073755;28;20029;-66
2023/04/11 06:05:37;;;;;;;8.68;6.53;;;;;;;;;;5073898;28;20043;-67
2023/04/11 06:08:06;;;;;;;9.52;6.55;;;;;;;;;;5072981;28;20059;-67
2023/04/11 06:10:31;;;;;;;7.50;6.18;;;;;;;;;;5073389;28;20028;-67
2023/04/11 06:12:57;;;;;;;8.88;6.55;;;;;;;;;;5073385;28;20029;-68
2023/04/11 06:15:24;;;;;;;8.43;6.35;;;;;;;;;;5073762;28;20029;-67
2023/04/11 06:17:50;;;;;;;9.95;6.82;;;;;;;;;;5073491;28;20431;-67
2023/04/11 06:20:16;;;;;;;7.68;6.03;;;;;;;;;;5073597;28;20025;-68
2023/04/11 06:22:42;;;;;;;7.75;6.57;;;;;;;;;;5073248;28;20641;-66
2023/04/11 06:25:08;;;;;;;7.47;6.03;;;;;;;;;;5073643;28;20041;-66
2023/04/11 06:27:34;;;;;;;8.32;6.53;;;;;;;;;;5073398;28;20028;-66
2023/04/11 06:30:00;;;;;;;8.70;7.03;;;;;;;;;;5073392;28;20027;-66
2023/04/11 06:32:26;;;;;;;8.40;6.15;;;;;;;;;;5073148;28;20392;-66
2023/04/11 06:34:52;;;;;;;8.65;6.55;;;;;;;;;;5073034;28;20450;-66
2023/04/11 06:37:18;;;;;;;7.50;6.13;;;;;;;;;;5073127;28;20028;-67
2023/04/11 06:39:43;;;;;;;8.73;6.25;;;;;;;;;;5072951;28;20032;-68
2023/04/11 06:42:09;;;;;;;8.68;6.15;;;;;;;;;;5072843;28;20025;-65
2023/04/11 06:44:35;;;;;;;8.48;7.22;;;;;;;;;;5072933;28;20016;-65
2023/04/11 06:47:01;;;;;;;8.52;6.35;;;;;;;;;;5073044;28;20433;-67
2023/04/11 06:49:27;;;;;;;8.93;6.35;;;;;;;;;;5072478;28;20419;-66
2023/04/11 06:51:54;;;;;;;9.02;6.60;;;;;;;;;;5072492;28;20024;-67
2023/04/11 06:54:21;;;;;;;8.38;6.60;;;;;;;;;;5072720;28;20523;-67
2023/04/11 06:56:49;;;;;;;8.00;6.55;;;;;;;;;;5072661;28;20095;-66
2023/04/11 06:59:15;;;;;;;8.40;6.95;;;;;;;;;;5072888;28;20354;-66
2023/04/11 07:01:41;;;;;;;9.70;6.40;;;;;;;;;;5072557;28;20032;-67
2023/04/11 07:04:07;;;;;;;7.97;6.63;;;;;;;;;;5072588;28;20024;-69
2023/04/11 07:06:36;;;;;;;7.22;6.00;;;;;;;;;;5072388;28;20597;-67
2023/04/11 07:09:05;;;;;;;6.75;5.85;;;;;;;;;;5072587;28;20451;-66
2023/04/11 07:11:32;;;;;;;8.13;6.32;;;;;;;;;;5072570;28;20028;-67
2023/04/11 07:14:01;;;;;;;8.45;6.10;;;;;;;;;;5072748;28;20029;-67
2023/04/11 07:16:27;;;;;;;8.77;6.20;;;;;;;;;;5072540;28;20031;-67
2023/04/11 07:18:54;;;;;;;8.25;6.10;;;;;;;;;;5072633;28;20349;-67
2023/04/11 07:21:20;;;;;;;7.93;6.05;;;;;;;;;;5072310;28;20032;-66
2023/04/11 07:23:45;;;;;;;9.07;5.82;;;;;;;;;;5072339;28;20030;-67
2023/04/11 07:26:12;;;;;;;8.23;6.18;;;;;;;;;;5072320;28;20024;-66
2023/04/11 07:28:39;;;;;;;7.00;5.80;;;;;;;;;;5072299;28;20115;-67
2023/04/11 07:31:08;;;;;;;7.45;6.10;;;;;;;;;;5072198;28;20055;-69
2023/04/11 07:33:35;;;;;;;7.33;5.90;;;;;;;;;;5072119;28;20024;-69
2023/04/11 07:36:01;;;;;;;8.55;6.22;;;;;;;;;;5071017;28;20253;-66
2023/04/11 07:38:30;;;;;;;7.05;5.85;;;;;;;;;;5072211;28;20031;-66
2023/04/11 07:40:56;;;;;;;8.52;5.78;;;;;;;;;;5071923;28;20644;-69
2023/04/11 07:43:26;;;;;;;10.45;5.90;;;;;;;;;;5072408;28;20036;-70
2023/04/11 07:45:53;;;;;;;6.97;5.95;;;;;;;;;;5072118;28;20024;-69
2023/04/11 07:48:20;;;;;;;7.15;5.60;;;;;;;;;;5072039;28;20064;-68
2023/04/11 07:50:46;;;;;;;6.30;5.30;;;;;;;;;;5071894;28;20445;-68
2023/04/11 07:53:12;;;;;;;6.50;5.60;;;;;;;;;;5071624;28;20115;-69
2023/04/11 07:55:38;;;;;;;6.38;5.28;;;;;;;;;;5071918;28;20488;-65
2023/04/11 07:58:04;;;;;;;7.25;5.95;;;;;;;;;;5071945;28;20040;-68
2023/04/11 08:00:32;;;;;;;6.75;5.85;;;;;;;;;;5072000;28;20031;-67
2023/04/11 08:03:01;;;;;;;6.97;5.60;;;;;;;;;;5075934;28;20162;-66
2023/04/11 08:05:28;;;;;;;6.63;5.88;;;;;;;;;;5075945;28;20043;-67
2023/04/11 08:07:54;;;;;;;6.43;5.45;;;;;;;;;;5076203;28;20383;-66
2023/04/11 08:10:19;;;;;;;6.40;5.53;;;;;;;;;;5075803;28;20044;-65
2023/04/11 08:12:45;;;;;;;8.32;5.90;;;;;;;;;;5075437;28;20036;-65
2023/04/11 08:15:11;;;;;;;6.60;5.57;;;;;;;;;;5072385;28;20040;-67
2023/04/11 08:17:37;;;;;;;6.57;5.50;;;;;;;;;;5058020;28;20032;-67
2023/04/11 08:20:04;;;;;;;7.47;5.88;;;;;;;;;;5055735;28;20021;-67
2023/04/11 08:22:32;;;;;;;6.78;5.10;;;;;;;;;;5055448;28;20480;-66
2023/04/11 08:24:57;;;;;;;6.38;5.63;;;;;;;;;;5055741;28;20502;-66
2023/04/11 08:27:23;;;;;;;7.95;5.13;;;;;;;;;;5055916;28;20040;-66
2023/04/11 08:29:49;;;;;;;8.15;5.50;;;;;;;;;;5055458;28;20544;-67
2023/04/11 08:32:15;;;;;;;5.85;5.25;;;;;;;;;;5055040;28;20037;-66
2023/04/11 08:34:40;;;;;;;7.03;5.85;;;;;;;;;;5054997;28;20025;-66
2023/04/11 08:37:06;;;;;;;6.72;5.57;;;;;;;;;;5055306;28;20461;-67
2023/04/11 08:39:31;;;;;;;9.52;5.80;;;;;;;;;;5055352;28;20388;-66
2023/04/11 08:41:58;;;;;;;8.40;6.00;;;;;;;;;;5055277;28;20053;-66
2023/04/11 08:44:24;;;;;;;6.57;5.75;;;;;;;;;;5055102;28;20437;-66
2023/04/11 08:46:50;;;;;;;7.28;5.70;;;;;;;;;;5055035;28;20036;-65
2023/04/11 08:49:16;;;;;;;5.95;5.35;;;;;;;;;;5055431;28;20031;-66
2023/04/11 08:51:43;;;;;;;7.35;5.57;;;;;;;;;;5054884;28;20508;-70
2023/04/11 08:54:08;;;;;;;6.18;5.50;;;;;;;;;;5053580;28;20045;-66
2023/04/11 08:56:34;;;;;;;7.13;5.50;;;;;;;;;;5054864;28;20040;-65
2023/04/11 08:59:01;;;;;;;6.60;5.88;;;;;;;;;;5053479;28;20111;-66
2023/04/11 09:01:35;;;;;;;7.00;5.97;;;;;;;;;;5054746;28;20025;-65
2023/04/11 09:04:04;;;;;;;7.28;5.78;;;;;;;;;;5055199;28;20052;-67
2023/04/11 09:06:31;;;;;;;6.20;5.43;;;;;;;;;;5054767;28;20098;-66
2023/04/11 09:09:08;;;;;;;6.30;5.30;;;;;;;;;;5054748;28;20040;-67
2023/04/11 09:11:53;;;;;;;5.72;5.10;;;;;;;;;;5054886;28;20025;-66
2023/04/11 09:14:24;;;;;;;6.97;5.50;;;;;;;;;;5054305;28;20103;-66
2023/04/11 09:16:57;;;;;;;8.52;5.80;;;;;;;;;;5054591;28;20033;-65
2023/04/11 09:19:27;;;;;;;6.05;5.40;;;;;;;;;;5053189;28;20025;-64
2023/04/11 09:21:55;;;;;;;;;;;;;;;;;;5053261;28;20039;-63
2023/04/11 09:24:21;;;;;;;8.63;5.40;;;;;;;;;;5053245;28;19959;-68
2023/04/11 09:26:47;;;;;;;6.82;5.75;;;;;;;;;;5052593;28;20485;-67
2023/04/11 09:29:37;;;;;;;6.32;5.20;;;;;;;;;;5053671;28;20063;-67
2023/04/11 09:32:03;;;;;;;5.80;4.97;;;;;;;;;;5049742;28;20043;-67
2023/04/11 09:34:28;;;;;;;6.97;5.38;;;;;;;;;;5053664;28;20103;-66
2023/04/11 09:36:55;;;;;;;5.45;4.93;;;;;;;;;;5053577;28;20039;-67
2023/04/11 09:39:20;;;;;;;6.90;5.00;;;;;;;;;;5053063;28;20028;-66
2023/04/11 09:41:46;;;;;;;8.07;5.15;;;;;;;;;;5053860;28;20082;-67
2023/04/11 09:44:12;;;;;;;6.03;5.30;;;;;;;;;;5054151;28;20028;-66
2023/04/11 09:46:57;;;;;;;6.25;5.20;;;;;;;;;;5053999;28;20029;-68
2023/04/11 09:49:23;;;;;;;5.65;5.03;;;;;;;;;;5054330;28;20475;-69
2023/04/11 09:51:51;;;;;;;5.97;5.20;;;;;;;;;;5054094;28;20087;-67
2023/04/11 09:54:19;;;;;;;6.20;5.20;;;;;;;;;;5053880;28;20142;-67
2023/04/11 09:56:45;;;;;;;5.80;4.93;;;;;;;;;;5053887;28;20033;-66
2023/04/11 09:59:13;;;;;;;6.00;5.03;;;;;;;;;;5053890;28;20106;-69
2023/04/11 10:01:40;;;;;;;6.43;5.38;;;;;;;;;;5053783;28;20028;-69
2023/04/11 10:04:06;;;;;;;8.13;5.20;;;;;;;;;;5053717;28;20100;-65
2023/04/11 10:06:50;;;;;;;6.95;5.55;;;;;;;;;;5053962;28;20100;-66
2023/04/11 10:09:16;;;;;;;6.28;5.40;;;;;;;;;;5053981;28;20117;-69
2023/04/11 10:11:42;;;;;;;5.25;4.72;;;;;;;;;;5053716;28;20450;-68
2023/04/11 10:14:28;;;;;;;5.65;5.00;;;;;;;;;;5053829;28;20025;-65
2023/04/11 10:17:13;;;;;;;5.97;5.10;;;;;;;;;;5053380;28;20370;-68
2023/04/11 10:19:39;;;;;;;6.40;4.68;;;;;;;;;;5053464;28;20465;-65
2023/04/11 10:22:05;;;;;;;5.78;5.05;;;;;;;;;;5052051;28;20031;-65
2023/04/11 10:24:31;;;;;;;6.28;5.35;;;;;;;;;;5052293;28;20104;-67
2023/04/11 10:27:05;;;;;;;7.35;5.40;;;;;;;;;;5053295;28;20040;-66
2023/04/11 10:29:33;;;;;;;6.93;5.40;;;;;;;;;;5052224;28;20108;-63
2023/04/11 10:32:11;;;;;;;9.15;5.35;;;;;;;;;;5053194;28;20107;-69
2023/04/11 10:34:57;;;;;;;5.82;5.13;;;;;;;;;;5055343;28;20036;-66
2023/04/11 10:37:29;;;;;;;8.35;5.38;;;;;;;;;;5072762;28;20033;-66
2023/04/11 10:40:00;;;;;;;6.15;5.25;;;;;;;;;;5073140;28;20024;-68
2023/04/11 10:42:31;;;;;;;5.55;4.90;;;;;;;;;;5072777;28;20036;-67
2023/04/11 10:45:26;;;;;;;5.80;5.20;;;;;;;;;;5072926;28;20380;-70
2023/04/11 10:47:55;;;;;;;7.38;5.07;;;;;;;;;;5064302;28;20036;-66
2023/04/11 10:50:27;;;;;;;5.95;5.35;;;;;;;;;;5072887;28;20483;-65
2023/04/11 10:52:57;;;;;;;8.52;5.15;;;;;;;;;;5072510;28;20032;-66
2023/04/11 10:55:25;;;;;;;6.03;4.90;;;;;;;;;;5073135;28;20119;-66
2023/04/11 10:58:08;;;;;;;5.80;4.80;;;;;;;;;;5072871;28;20361;-70
2023/04/11 11:00:49;;;;;;;5.95;5.10;;;;;;;;;;5072519;28;20108;-69
2023/04/11 11:03:27;;;;;;;7.60;5.20;;;;;;;;;;5071110;28;20489;-67
2023/04/11 11:06:01;;;;;;;6.68;5.35;;;;;;;;;;5071198;28;20035;-66
2023/04/11 11:08:30;;;;;;;6.97;4.75;;;;;;;;;;5072296;28;20032;-68
2023/04/11 11:11:07;;;;;;;6.00;5.32;;;;;;;;;;5070717;28;20031;-67
2023/04/11 11:13:51;;;;;;;6.60;4.95;;;;;;;;;;5051997;28;20041;-70
2023/04/11 11:16:19;;;;;;;6.53;5.00;;;;;;;;;;5085973;28;20028;-67
2023/04/11 11:18:50;;;;;;;6.03;5.30;;;;;;;;;;5091033;28;20035;-69
2023/04/11 11:21:19;;;;;;;5.43;4.93;;;;;;;;;;5090921;28;20028;-68
2023/04/11 11:23:59;;;;;;;5.97;5.38;;;;;;;;;;5072555;28;20032;-66
2023/04/11 11:26:40;;;;;;;5.72;4.97;;;;;;;;;;5070691;28;20033;-64
2023/04/11 11:29:06;;;;;;;5.60;4.97;;;;;;;;;;5067729;28;20036;-65
2023/04/11 11:31:46;;;;;;;8.00;5.88;;;;;;;;;;5070803;28;20036;-63
2023/04/11 11:34:12;;;;;;;6.18;5.13;;;;;;;;;;5079676;28;20027;-67
2023/04/11 11:36:43;;;;;;;8.57;5.43;;;;;;;;;;5075837;28;20045;-67
2023/04/11 11:39:10;;;;;;;7.65;5.35;;;;;;;;;;5071026;28;20503;-64
2023/04/11 11:41:39;;;;;;;7.72;5.15;;;;;;;;;;5069372;28;20032;-67
2023/04/11 11:44:05;;;;;;;5.93;5.20;;;;;;;;;;5070601;28;20035;-65
2023/04/11 11:46:34;;;;;;;6.68;5.07;;;;;;;;;;5070426;28;20055;-65
2023/04/11 11:49:04;;;;;;;5.53;4.97;;;;;;;;;;5068766;28;20052;-65
2023/04/11 11:51:40;;;;;;;6.05;5.32;;;;;;;;;;5069722;28;20496;-66
2023/04/11 11:54:10;;;;;;;6.60;5.25;;;;;;;;;;5070514;28;20048;-66
2023/04/11 11:56:40;;;;;;;5.78;5.07;;;;;;;;;;5070441;28;20025;-67
2023/04/11 11:59:06;;;;;;;7.00;5.78;;;;;;;;;;5070445;28;20032;-68
2023/04/11 12:01:33;;;;;;;5.78;5.03;;;;;;;;;;5068746;28;20040;-67
2023/04/11 12:03:59;;;;;;;6.43;5.45;;;;;;;;;;5068249;28;20054;-66
2023/04/11 12:06:32;;;;;;;5.97;5.00;;;;;;;;;;5069051;28;20078;-67
2023/04/11 12:09:02;;;;;;;6.53;5.40;;;;;;;;;;5070704;28;20142;-66
2023/04/11 12:11:41;;;;;;;5.72;5.13;;;;;;;;;;5070163;28;20023;-65
2023/04/11 12:14:08;;;;;;;6.03;5.43;;;;;;;;;;5070455;28;20043;-68
2023/04/11 12:16:36;;;;;;;6.63;5.20;;;;;;;;;;5068275;28;20534;-67
2023/04/11 12:19:03;;;;;;;6.18;5.38;;;;;;;;;;5070323;28;20043;-64
2023/04/11 12:21:29;;;;;;;6.22;5.10;;;;;;;;;;5070157;28;20032;-65
2023/04/11 12:23:55;;;;;;;6.13;5.25;;;;;;;;;;5069854;28;20047;-66
2023/04/11 12:26:22;;;;;;;6.28;5.20;;;;;;;;;;5070033;28;20033;-66
2023/04/11 12:28:49;;;;;;;6.22;5.28;;;;;;;;;;5067667;28;20400;-67
2023/04/11 12:31:15;;;;;;;6.38;5.72;;;;;;;;;;5068555;28;20039;-67
2023/04/11 12:33:40;;;;;;;6.90;5.95;;;;;;;;;;5061956;28;20036;-64
2023/04/11 12:36:06;;;;;;;6.43;5.50;;;;;;;;;;5060890;28;20531;-65
2023/04/11 12:38:33;;;;;;;6.00;5.40;;;;;;;;;;5060355;28;20063;-66
2023/04/11 12:40:59;;;;;;;5.70;5.18;;;;;;;;;;5059508;28;20930;-66
2023/04/11 12:43:25;;;;;;;7.60;5.32;;;;;;;;;;5057818;28;20039;-67
2023/04/11 12:45:51;;;;;;;6.85;5.20;;;;;;;;;;5061412;28;20024;-67
2023/04/11 12:48:16;;;;;;;10.32;5.78;;;;;;;;;;5071241;28;20032;-67
2023/04/11 12:50:42;;;;;;;5.95;5.00;;;;;;;;;;5073679;28;20043;-65
2023/04/11 12:53:07;;;;;;;5.97;5.22;;;;;;;;;;5073166;28;20484;-67
2023/04/11 12:55:33;;;;;;;7.72;5.25;;;;;;;;;;5073454;28;20036;-67
2023/04/11 12:58:00;;;;;;;9.43;6.13;;;;;;;;;;5072064;28;20068;-66
2023/04/11 13:00:25;;;;;;;9.13;5.50;;;;;;;;;;5073106;28;20016;-64
2023/04/11 13:02:52;;;;;;;7.57;5.90;;;;;;;;;;5073137;28;20154;-66
2023/04/11 13:05:18;;;;;;;6.85;5.70;;;;;;;;;;5078013;28;20028;-66
2023/04/11 13:07:44;;;;;;;7.78;5.10;;;;;;;;;;5073493;28;20429;-66
2023/04/11 13:10:10;;;;;;;8.23;5.72;;;;;;;;;;5070492;28;20089;-66
2023/04/11 13:12:40;;;;;;;7.15;5.57;;;;;;;;;;5082345;28;20119;-66
2023/04/11 13:15:09;;;;;;;6.47;5.70;;;;;;;;;;5079026;28;20025;-66
2023/04/11 13:17:35;;;;;;;7.32;5.90;;;;;;;;;;5072434;28;20032;-66
2023/04/11 13:20:01;;;;;;;7.95;6.00;;;;;;;;;;5079690;28;20020;-66
2023/04/11 13:22:26;;;;;;;6.78;5.60;;;;;;;;;;5091612;28;20035;-65
2023/04/11 13:24:52;;;;;;;9.45;5.43;;;;;;;;;;5093234;28;20031;-66
2023/04/11 13:27:17;;;;;;;9.55;5.30;;;;;;;;;;5091178;28;20035;-66
2023/04/11 13:29:43;;;;;;;6.75;4.93;;;;;;;;;;5071179;28;20492;-66
2023/04/11 13:32:09;;;;;;;6.68;5.68;;;;;;;;;;5072892;28;20111;-64
2023/04/11 13:34:35;;;;;;;9.20;5.60;;;;;;;;;;5072765;28;20141;-65
2023/04/11 13:37:01;;;;;;;10.25;6.00;;;;;;;;;;5072646;28;20064;-67
2023/04/11 13:39:27;;;;;;;8.77;5.53;;;;;;;;;;5072769;28;20029;-65
2023/04/11 13:41:52;;;;;;;10.15;5.40;;;;;;;;;;5074617;28;20406;-67
2023/04/11 13:44:18;;;;;;;9.15;5.75;;;;;;;;;;5092655;28;20448;-67
2023/04/11 13:46:44;;;;;;;7.20;5.53;;;;;;;;;;5066825;28;20036;-66
2023/04/11 13:49:10;;;;;;;6.80;5.65;;;;;;;;;;5061093;28;20028;-65
2023/04/11 13:51:35;;;;;;;9.77;5.78;;;;;;;;;;5063749;28;20025;-65
2023/04/11 13:54:01;;;;;;;6.82;5.70;;;;;;;;;;5069683;28;20048;-66
2023/04/11 13:56:26;;;;;;;8.20;5.30;;;;;;;;;;5056204;28;20069;-65
2023/04/11 13:58:52;;;;;;;8.70;5.78;;;;;;;;;;5056209;28;20030;-64
2023/04/11 14:01:20;;;;;;;5.82;5.22;;;;;;;;;;5062456;28;20039;-65
2023/04/11 14:03:47;;;;;;;11.52;5.88;;;;;;;;;;5065112;28;20061;-66
2023/04/11 14:06:12;;;;;;;16.55;6.50;;;;;;;;;;5071769;28;20111;-65
2023/04/11 14:08:38;;;;;;;8.70;5.90;;;;;;;;;;5072377;28;20132;-66
2023/04/11 14:11:04;;;;;;;11.23;5.18;;;;;;;;;;5072070;28;20021;-64
2023/04/11 14:13:30;;;;;;;8.95;5.63;;;;;;;;;;5072073;28;20128;-64
2023/04/11 14:15:55;;;;;;;6.15;5.00;;;;;;;;;;5071971;28;20154;-65
2023/04/11 14:18:21;;;;;;;15.90;5.60;;;;;;;;;;5067520;28;20025;-63
2023/04/11 14:20:46;;;;;;;7.80;6.05;;;;;;;;;;5087982;28;20076;-63
2023/04/11 14:23:15;;;;;;;6.95;5.28;;;;;;;;;;5089030;28;20028;-62
2023/04/11 14:25:41;;;;;;;8.38;5.40;;;;;;;;;;5091218;28;20028;-64
2023/04/11 14:28:07;;;;;;;8.73;5.60;;;;;;;;;;5091680;28;20024;-62
2023/04/11 14:30:33;;;;;;;11.30;5.75;;;;;;;;;;5092005;28;20039;-63
2023/04/11 14:32:59;;;;;;;9.27;5.60;;;;;;;;;;5091106;28;20483;-63
2023/04/11 14:35:25;;;;;;;6.75;5.32;;;;;;;;;;5091707;28;20020;-62
2023/04/11 14:37:50;;;;;;;7.20;5.55;;;;;;;;;;5091852;28;20119;-63
2023/04/11 14:40:16;;;;;;;7.00;5.45;;;;;;;;;;5091980;28;20100;-63
2023/04/11 14:42:41;;;;;;;7.75;5.65;;;;;;;;;;5091575;28;20028;-63
2023/04/11 14:45:07;;;;;;;7.75;5.38;;;;;;;;;;5091741;28;20422;-63